Time;durP1;ratioP1;P1;durP2;ratioP2;P2;SDS_P1;SDS_P2;PMS_P1;PMS_P2;Temp;Humidity;BMP_temperature;BMP_pressure;BME280_temperature;BME280_humidity;BME280_pressure;Samples;Min_cycle;Max_cycle;Signal;HPM_P1;HPM_P2
2022/06/20 00:01:43;;;;;;;;;3.50;2.75;24.90;99.90;;;;;;4945234;28;9056;-58
2022/06/20 00:04:19;;;;;;;;;1.50;1.25;24.90;99.90;;;;;;4948545;28;8981;-58
2022/06/20 00:06:52;;;;;;;;;2.25;2.25;25.00;99.90;;;;;;4961517;28;8852;-58
2022/06/20 00:09:22;;;;;;;;;2.50;1.00;24.90;99.90;;;;;;4962294;28;8837;-58
2022/06/20 00:11:52;;;;;;;;;2.75;2.75;24.80;99.90;;;;;;4961671;28;8888;-58
2022/06/20 00:14:24;;;;;;;;;3.75;3.25;24.80;99.90;;;;;;4930107;28;8868;-58
2022/06/20 00:16:54;;;;;;;;;2.75;2.00;24.90;99.90;;;;;;4963858;28;8923;-57
2022/06/20 00:19:24;;;;;;;;;2.75;2.25;24.90;99.90;;;;;;4947206;28;9064;-58
2022/06/20 00:21:54;;;;;;;;;2.00;2.00;24.90;99.90;;;;;;4942986;28;8870;-57
2022/06/20 00:24:26;;;;;;;;;2.00;2.00;25.00;99.90;;;;;;4925882;28;8909;-58
2022/06/20 00:26:59;;;;;;;;;1.00;1.00;25.00;99.90;;;;;;4924457;28;8968;-57
2022/06/20 00:29:30;;;;;;;;;2.25;2.25;25.00;99.90;;;;;;4926184;28;8902;-58
2022/06/20 00:32:01;;;;;;;;;2.00;2.00;24.90;99.90;;;;;;4939040;28;8870;-58
2022/06/20 00:34:32;;;;;;;;;2.25;2.25;24.90;99.90;;;;;;4937926;28;8873;-58
2022/06/20 00:37:04;;;;;;;;;2.00;2.00;24.90;99.90;;;;;;4938946;28;8842;-58
2022/06/20 00:39:34;;;;;;;;;1.50;1.50;25.00;99.90;;;;;;4939390;28;9003;-59
2022/06/20 00:42:05;;;;;;;;;2.75;2.75;25.00;99.90;;;;;;4938293;28;8867;-57
2022/06/20 00:44:40;;;;;;;;;2.75;2.75;24.90;99.90;;;;;;4944651;28;8873;-58
2022/06/20 00:47:17;;;;;;;;;2.25;2.25;24.80;99.90;;;;;;4940130;28;8871;-59
2022/06/20 00:49:50;;;;;;;;;1.50;1.50;24.80;99.90;;;;;;4943376;28;8875;-58
2022/06/20 00:52:35;;;;;;;;;3.50;3.00;24.80;99.90;;;;;;4939508;28;8997;-57
2022/06/20 00:55:18;;;;;;;;;2.25;2.25;24.80;99.90;;;;;;4940897;28;8974;-58
2022/06/20 00:58:01;;;;;;;;;2.25;2.25;24.80;99.90;;;;;;4942446;28;9652;-58
2022/06/20 01:00:37;;;;;;;;;2.50;2.50;24.70;99.90;;;;;;4943396;28;8901;-58
2022/06/20 01:03:20;;;;;;;;;2.50;2.50;24.70;99.90;;;;;;4939904;28;8854;-58
2022/06/20 01:06:00;;;;;;;;;2.25;2.25;24.60;99.90;;;;;;4937950;28;8893;-57
2022/06/20 01:08:40;;;;;;;;;2.00;2.00;24.50;99.90;;;;;;4942078;28;9033;-59
2022/06/20 01:11:17;;;;;;;;;3.50;3.50;24.50;99.90;;;;;;4941688;28;8989;-57
2022/06/20 01:13:47;;;;;;;;;3.50;2.25;24.50;99.90;;;;;;4940042;28;8873;-58
2022/06/20 01:16:20;;;;;;;;;3.50;3.50;24.40;99.90;;;;;;4941104;28;8876;-57
2022/06/20 01:18:52;;;;;;;;;3.00;3.00;24.40;99.90;;;;;;4932114;28;8924;-57
2022/06/20 01:21:32;;;;;;;;;3.00;3.00;24.30;99.90;;;;;;4940949;28;9023;-57
2022/06/20 01:24:24;;;;;;;;;2.50;2.50;24.30;99.90;;;;;;4936465;28;8815;-56
2022/06/20 01:27:15;;;;;;;;;3.25;2.00;24.30;99.90;;;;;;4949593;28;8880;-58
2022/06/20 01:29:47;;;;;;;;;3.25;3.25;24.20;99.90;;;;;;4936926;28;9118;-57
2022/06/20 01:32:18;;;;;;;;;2.00;2.00;24.20;99.90;;;;;;4940560;28;8854;-57
2022/06/20 01:34:49;;;;;;;;;3.00;3.00;24.20;99.90;;;;;;4940586;28;8855;-57
2022/06/20 01:37:23;;;;;;;;;4.00;4.00;24.10;99.90;;;;;;4940732;28;8893;-60
2022/06/20 01:40:00;;;;;;;;;4.00;3.00;24.10;99.90;;;;;;4939284;28;8891;-56
2022/06/20 01:42:32;;;;;;;;;3.00;3.00;24.10;99.90;;;;;;4941906;28;9788;-57
2022/06/20 01:45:57;;;;;;;;;2.00;2.00;24.20;99.90;;;;;;4936826;28;8867;-57
2022/06/20 01:48:04;;;;;;;;;2.00;2.00;24.20;99.90;;;;;;4942644;28;8874;-58
2022/06/20 01:50:35;;;;;;;;;2.50;2.50;24.20;99.90;;;;;;4939909;28;8871;-57
2022/06/20 01:53:10;;;;;;;;;3.00;3.00;24.20;99.90;;;;;;4945287;28;9553;-58
2022/06/20 01:55:45;;;;;;;;;2.00;2.00;24.20;99.90;;;;;;4939082;28;8867;-57
2022/06/20 01:58:36;;;;;;;;;3.00;3.00;24.20;99.90;;;;;;4944369;28;8898;-58
2022/06/20 02:01:11;;;;;;;;;2.00;2.00;24.30;99.90;;;;;;4938303;28;8981;-58
2022/06/20 02:03:45;;;;;;;;;2.50;2.50;24.20;99.90;;;;;;4917787;28;8870;-58
2022/06/20 02:06:18;;;;;;;;;1.75;1.75;24.30;99.90;;;;;;4938565;28;8863;-57
2022/06/20 02:08:55;;;;;;;;;2.25;2.25;24.30;99.90;;;;;;4938040;28;8842;-57
2022/06/20 02:11:46;;;;;;;;;2.50;2.50;24.30;99.90;;;;;;4942134;28;9699;-57
2022/06/20 02:14:46;;;;;;;;;2.50;2.50;24.30;99.90;;;;;;4940967;28;8984;-57
2022/06/20 02:17:31;;;;;;;;;1.00;1.00;24.20;99.90;;;;;;4910668;28;8878;-57
2022/06/20 02:20:06;;;;;;;;;1.50;1.50;24.20;99.90;;;;;;4939739;28;8879;-58
2022/06/20 02:22:37;;;;;;;;;3.50;3.50;24.10;99.90;;;;;;4935961;28;8871;-58
2022/06/20 02:25:12;;;;;;;;;3.75;3.75;24.10;99.90;;;;;;4939187;28;8843;-58
2022/06/20 02:27:58;;;;;;;;;2.25;2.25;24.00;99.90;;;;;;4934692;28;8906;-57
2022/06/20 02:30:31;;;;;;;;;3.00;3.00;24.00;99.90;;;;;;4938821;28;9015;-57
2022/06/20 02:33:09;;;;;;;;;3.25;3.25;23.90;99.90;;;;;;4934534;28;9041;-57
2022/06/20 02:35:40;;;;;;;;;2.00;2.00;23.90;99.90;;;;;;4939039;28;8890;-57
2022/06/20 02:38:10;;;;;;;;;2.50;2.50;23.80;99.90;;;;;;4936093;28;9006;-56
2022/06/20 02:40:41;;;;;;;;;2.33;2.00;23.80;99.90;;;;;;4936305;28;8880;-57
2022/06/20 02:43:32;;;;;;;;;2.00;2.00;23.80;99.90;;;;;;4938623;28;8894;-58
2022/06/20 02:46:08;;;;;;;;;1.50;1.50;23.70;99.90;;;;;;4941424;28;8913;-57
2022/06/20 02:48:42;;;;;;;;;3.25;3.25;23.60;99.90;;;;;;4932594;28;8901;-57
2022/06/20 02:51:20;;;;;;;;;2.75;2.75;23.60;99.90;;;;;;4933870;28;8886;-58
2022/06/20 02:53:59;;;;;;;;;4.00;2.50;23.60;99.90;;;;;;4935444;28;8865;-57
2022/06/20 02:56:36;;;;;;;;;3.00;3.00;23.50;99.90;;;;;;4936635;28;8869;-57
2022/06/20 02:59:22;;;;;;;;;5.50;5.50;23.40;99.90;;;;;;4939153;28;8870;-56
2022/06/20 03:02:01;;;;;;;;;5.75;5.00;23.20;99.90;;;;;;4932962;28;8846;-58
2022/06/20 03:04:36;;;;;;;;;4.25;3.75;23.10;99.90;;;;;;4940222;28;8879;-58
2022/06/20 03:07:21;;;;;;;;;4.00;2.25;23.00;99.90;;;;;;4938652;28;8865;-57
2022/06/20 03:10:17;;;;;;;;;4.00;4.00;22.90;99.90;;;;;;4939415;28;8871;-58
2022/06/20 03:12:47;;;;;;;;;3.25;3.25;22.90;99.90;;;;;;4930350;28;8902;-58
2022/06/20 03:15:20;;;;;;;;;3.50;3.50;22.80;99.90;;;;;;4919442;28;8985;-58
2022/06/20 03:17:52;;;;;;;;;4.75;4.75;22.80;99.90;;;;;;4934385;28;8866;-57
2022/06/20 03:20:25;;;;;;;;;3.00;3.00;22.80;99.90;;;;;;4952735;28;8860;-57
2022/06/20 03:23:09;;;;;;;;;2.75;2.75;22.70;99.90;;;;;;4935290;28;8883;-58
2022/06/20 03:25:41;;;;;;;;;4.50;4.50;22.60;99.90;;;;;;4957410;28;8841;-57
2022/06/20 03:28:17;;;;;;;;;5.00;3.50;22.50;99.90;;;;;;4954277;28;8864;-58
2022/06/20 03:31:11;;;;;;;;;3.25;3.25;22.50;99.90;;;;;;4954191;28;8864;-57
2022/06/20 03:33:42;;;;;;;;;4.75;4.75;22.40;99.90;;;;;;4954014;28;8881;-57
2022/06/20 03:36:27;;;;;;;;;4.25;4.25;22.40;99.90;;;;;;4955542;28;8877;-57
2022/06/20 03:38:57;;;;;;;;;4.75;4.75;22.40;99.90;;;;;;4959044;28;8884;-57
2022/06/20 03:41:28;;;;;;;;;4.00;4.00;22.30;99.90;;;;;;4956676;28;8857;-58
2022/06/20 03:44:10;;;;;;;;;4.00;4.00;22.30;99.90;;;;;;4957759;28;9141;-58
2022/06/20 03:46:50;;;;;;;;;4.50;4.50;22.30;99.90;;;;;;4955522;28;8868;-58
2022/06/20 03:49:29;;;;;;;;;3.00;3.00;22.20;99.90;;;;;;4950929;28;8868;-58
2022/06/20 03:52:09;;;;;;;;;5.00;5.00;22.10;99.90;;;;;;4961576;28;8845;-57
2022/06/20 03:54:59;;;;;;;;;4.00;4.00;21.90;99.90;;;;;;4941023;28;8987;-57
2022/06/20 03:57:55;;;;;;;;;4.33;4.33;21.90;99.90;;;;;;4959643;28;8960;-57
2022/06/20 04:00:58;;;;;;;;;3.00;3.00;21.90;99.90;;;;;;4957651;28;8974;-58
2022/06/20 04:03:39;;;;;;;;;3.00;3.00;21.80;99.90;;;;;;4956198;28;9393;-60
2022/06/20 04:06:27;;;;;;;;;3.00;3.00;21.80;99.90;;;;;;4951432;28;9174;-56
2022/06/20 04:12:03;;;;;;;;;6.00;4.00;21.50;99.90;;;;;;4930861;28;9225;-59
2022/06/20 04:14:46;;;;;;;;;4.00;4.00;21.50;99.90;;;;;;4938228;28;9427;-58
2022/06/20 04:20:32;;;;;;;;;4.33;4.33;21.40;99.90;;;;;;4949941;28;9112;-58
2022/06/20 04:23:10;;;;;;;;;3.00;3.00;21.40;99.90;;;;;;4948463;28;9239;-58
2022/06/20 04:25:53;;;;;;;;;2.67;2.67;21.40;99.90;;;;;;4953817;28;9191;-59
2022/06/20 04:28:33;;;;;;;;;4.67;4.67;21.30;99.90;;;;;;4950895;28;9403;-57
2022/06/20 04:31:32;;;;;;;;;5.00;5.00;21.30;99.90;;;;;;4953222;28;9405;-58
2022/06/20 04:34:33;;;;;;;;;5.00;5.00;21.20;99.90;;;;;;4952350;28;9580;-58
2022/06/20 04:37:20;;;;;;;;;6.67;5.33;21.20;99.90;;;;;;4955443;28;11345;-59
2022/06/20 04:40:10;;;;;;;;;5.00;5.00;21.10;99.90;;;;;;4960047;28;9493;-58
2022/06/20 04:42:49;;;;;;;;;5.33;5.33;21.10;99.90;;;;;;4955784;28;9383;-59
2022/06/20 04:45:46;;;;;;;;;5.00;5.00;21.00;99.90;;;;;;4953702;28;10176;-58
2022/06/20 04:48:23;;;;;;;;;6.00;4.33;21.00;99.90;;;;;;4954146;28;9578;-57
2022/06/20 04:50:59;;;;;;;;;5.00;5.00;20.90;99.90;;;;;;4956584;28;9430;-58
2022/06/20 04:53:36;;;;;;;;;5.00;5.00;20.90;99.90;;;;;;4947670;28;9367;-57
2022/06/20 04:56:10;;;;;;;;;4.67;4.67;20.80;99.90;;;;;;4960770;28;9493;-57
2022/06/20 04:58:53;;;;;;;;;4.00;4.00;20.80;99.90;;;;;;4941784;28;9544;-55
2022/06/20 05:01:24;;;;;;;;;3.00;3.00;20.70;99.90;;;;;;4957784;28;10284;-56
2022/06/20 05:03:59;;;;;;;;;4.33;4.33;20.70;99.90;;;;;;4960510;28;9316;-59
2022/06/20 05:06:33;;;;;;;;;5.00;4.00;20.70;99.90;;;;;;4945132;28;9463;-57
2022/06/20 05:09:15;;;;;;;;;5.00;5.00;20.70;99.90;;;;;;4960705;28;9728;-58
2022/06/20 05:12:03;;;;;;;;;5.33;5.33;20.60;99.90;;;;;;4958833;28;9399;-60
2022/06/20 05:14:44;;;;;;;;;4.33;4.33;20.60;99.90;;;;;;4957796;28;9677;-57
2022/06/20 05:17:29;;;;;;;;;4.00;4.00;20.50;99.90;;;;;;4939806;28;9432;-57
2022/06/20 05:20:09;;;;;;;;;3.00;3.00;20.50;99.90;;;;;;4952650;28;9636;-57
2022/06/20 05:22:43;;;;;;;;;5.00;5.00;20.40;99.90;;;;;;4956187;28;11133;-57
2022/06/20 05:25:18;;;;;;;;;7.00;4.00;20.40;99.90;;;;;;4957651;28;9667;-56
2022/06/20 05:28:12;;;;;;;;;5.00;5.00;20.40;99.90;;;;;;4957550;28;10277;-56
2022/06/20 05:30:43;;;;;;;;;5.33;5.33;20.30;99.90;;;;;;4955273;28;9586;-58
2022/06/20 05:33:23;;;;;;;;;5.25;5.25;20.20;99.90;;;;;;4955408;28;9598;-59
2022/06/20 05:36:06;;;;;;;;;7.00;5.33;20.20;99.90;;;;;;4960123;28;10365;-57
2022/06/20 05:39:07;;;;;;;;;4.25;4.25;20.20;99.90;;;;;;4963028;28;9599;-59
2022/06/20 05:41:41;;;;;;;;;6.25;5.75;20.20;99.90;;;;;;4954949;28;9727;-57
2022/06/20 05:44:13;;;;;;;;;4.00;4.00;20.10;99.90;;;;;;4941995;28;9947;-58
2022/06/20 05:46:51;;;;;;;;;7.50;6.25;20.10;99.90;;;;;;4950455;28;9718;-59
2022/06/20 05:49:35;;;;;;;;;4.00;4.00;20.10;99.90;;;;;;4955168;28;9738;-56
2022/06/20 05:52:08;;;;;;;;;4.00;4.00;20.00;99.90;;;;;;4952895;28;10388;-58
2022/06/20 05:54:46;;;;;;;;;4.50;4.25;20.00;99.90;;;;;;4956650;28;9674;-58
2022/06/20 05:57:20;;;;;;;;;4.25;4.25;20.00;99.90;;;;;;4955684;28;9738;-59
2022/06/20 06:00:20;;;;;;;;;3.75;3.75;19.90;99.90;;;;;;4959796;28;9631;-58
2022/06/20 06:02:58;;;;;;;;;3.50;3.50;19.90;99.90;;;;;;4958169;28;9677;-58
2022/06/20 06:05:28;;;;;;;;;3.50;3.50;19.80;99.90;;;;;;4954928;28;9764;-58
2022/06/20 06:08:14;;;;;;;;;3.25;3.25;19.80;99.90;;;;;;4960113;28;9682;-59
2022/06/20 06:11:11;;;;;;;;;5.00;5.00;19.70;99.90;;;;;;4955197;28;9871;-58
2022/06/20 06:13:52;;;;;;;;;4.00;4.00;19.70;99.90;;;;;;4938744;28;9799;-57
2022/06/20 06:16:52;;;;;;;;;5.00;4.00;19.70;99.90;;;;;;4955546;28;9784;-57
2022/06/20 06:19:52;;;;;;;;;6.25;6.25;19.70;99.90;;;;;;4953424;28;9883;-59
2022/06/20 06:22:25;;;;;;;;;6.00;6.00;19.70;99.90;;;;;;4954881;28;9884;-56
2022/06/20 06:24:59;;;;;;;;;4.00;4.00;19.60;99.90;;;;;;4959962;28;9793;-58
2022/06/20 06:27:35;;;;;;;;;8.00;6.50;19.60;99.90;;;;;;4936159;28;9924;-58
2022/06/20 06:30:22;;;;;;;;;4.00;4.00;19.60;99.90;;;;;;4956817;28;10009;-58
2022/06/20 06:33:08;;;;;;;;;6.00;6.00;19.60;99.90;;;;;;4956013;28;9876;-57
2022/06/20 06:35:43;;;;;;;;;6.00;4.25;19.50;99.90;;;;;;4956243;28;10232;-58
2022/06/20 06:38:29;;;;;;;;;9.50;5.50;19.50;99.90;;;;;;4954109;28;9924;-57
2022/06/20 06:41:01;;;;;;;;;2.00;2.00;19.50;99.90;;;;;;4958346;28;9892;-58
2022/06/20 06:43:39;;;;;;;;;6.00;3.25;19.40;99.90;;;;;;4952306;28;10352;-58
2022/06/20 06:46:31;;;;;;;;;4.25;4.25;19.40;99.90;;;;;;4957136;28;9783;-58
2022/06/20 06:49:28;;;;;;;;;6.00;5.00;19.40;99.90;;;;;;4955455;28;9889;-57
2022/06/20 06:52:05;;;;;;;;;5.25;5.00;19.40;99.90;;;;;;4953307;28;10015;-58
2022/06/20 06:54:53;;;;;;;;;6.75;6.75;19.30;99.90;;;;;;4954847;28;10040;-58
2022/06/20 06:57:38;;;;;;;;;4.25;4.25;19.30;99.90;;;;;;4954063;28;11658;-58
2022/06/20 07:00:09;;;;;;;;;3.75;3.75;19.30;99.90;;;;;;4949899;28;9902;-60
2022/06/20 07:02:56;;;;;;;;;4.00;4.00;19.30;99.90;;;;;;4951427;28;9806;-58
2022/06/20 07:05:30;;;;;;;;;6.00;6.00;19.30;99.90;;;;;;4944896;28;9878;-60
2022/06/20 07:08:23;;;;;;;;;4.25;3.75;19.20;99.90;;;;;;4946916;28;10853;-59
2022/06/20 07:11:06;;;;;;;;;3.25;3.25;19.20;99.90;;;;;;4952167;28;9967;-58
2022/06/20 07:13:50;;;;;;;;;4.25;4.25;19.20;99.90;;;;;;4954311;28;9771;-59
2022/06/20 07:16:27;;;;;;;;;4.25;4.25;19.20;99.90;;;;;;4950023;28;9908;-58
2022/06/20 07:19:00;;;;;;;;;5.75;4.75;19.10;99.90;;;;;;4951711;28;9875;-58
2022/06/20 07:21:32;;;;;;;;;5.75;4.75;19.10;99.90;;;;;;4958675;28;10034;-61
2022/06/20 07:24:08;;;;;;;;;6.25;5.00;19.00;99.90;;;;;;4950964;28;9955;-58
2022/06/20 07:27:08;;;;;;;;;4.25;4.25;19.00;99.90;;;;;;4951108;28;10100;-59
2022/06/20 07:29:52;;;;;;;;;5.75;5.00;19.00;99.90;;;;;;4953752;28;9848;-59
2022/06/20 07:32:40;;;;;;;;;4.00;4.00;18.90;99.90;;;;;;4953668;28;9898;-59
2022/06/20 07:35:15;;;;;;;;;4.50;3.75;18.90;99.90;;;;;;4949485;28;9820;-58
2022/06/20 07:37:56;;;;;;;;;5.00;4.50;18.90;99.90;;;;;;4949604;28;10188;-58
2022/06/20 07:40:35;;;;;;;;;4.75;3.00;18.90;99.90;;;;;;4958011;28;10083;-58
2022/06/20 07:43:14;;;;;;;;;7.50;5.25;18.80;99.90;;;;;;4956556;28;10906;-58
2022/06/20 07:45:48;;;;;;;;;4.50;4.50;18.80;99.90;;;;;;4958220;28;10317;-58
2022/06/20 07:48:29;;;;;;;;;5.00;4.00;18.80;99.90;;;;;;4949741;28;10205;-57
2022/06/20 07:51:29;;;;;;;;;6.75;5.75;18.80;99.90;;;;;;4960639;28;10210;-58
2022/06/20 07:54:13;;;;;;;;;4.00;4.00;18.70;99.90;;;;;;4960222;28;10505;-59
2022/06/20 07:56:50;;;;;;;;;4.25;4.25;18.70;99.90;;;;;;4962139;28;10353;-57
2022/06/20 07:59:32;;;;;;;;;3.75;3.75;18.70;99.90;;;;;;4959161;28;10336;-58
2022/06/20 08:02:20;;;;;;;;;5.75;5.75;18.70;99.90;;;;;;4957773;28;10348;-59
2022/06/20 08:04:59;;;;;;;;;7.50;6.00;18.60;99.90;;;;;;4956283;28;10248;-58
2022/06/20 08:07:48;;;;;;;;;5.50;5.50;18.60;99.90;;;;;;4958070;28;10415;-58
2022/06/20 08:10:51;;;;;;;;;6.00;6.00;18.60;99.90;;;;;;4955119;28;10600;-58
2022/06/20 08:13:50;;;;;;;;;8.25;8.25;18.50;99.90;;;;;;4954584;28;10662;-59
2022/06/20 08:16:29;;;;;;;;;9.00;9.00;18.50;99.90;;;;;;4954831;28;10636;-58
2022/06/20 08:19:01;;;;;;;;;8.75;7.25;18.50;99.90;;;;;;4954682;28;10413;-58
2022/06/20 08:21:37;;;;;;;;;11.00;9.25;18.50;99.90;;;;;;4958438;28;12381;-59
2022/06/20 08:24:43;;;;;;;;;8.75;8.75;18.40;99.90;;;;;;4954568;28;10817;-58
2022/06/20 08:27:44;;;;;;;;;9.50;8.50;18.40;99.90;;;;;;4944153;28;10717;-58
2022/06/20 08:30:17;;;;;;;;;9.00;9.00;18.40;99.90;;;;;;4947157;28;10908;-58
2022/06/20 08:32:54;;;;;;;;;10.50;8.75;18.40;99.90;;;;;;4953863;28;10914;-59
2022/06/20 08:35:27;;;;;;;;;9.50;9.50;18.30;99.90;;;;;;4956320;28;11140;-58
2022/06/20 08:38:34;;;;;;;;;11.00;9.25;18.30;99.90;;;;;;4960594;28;11144;-58
2022/06/20 08:41:10;;;;;;;;;10.50;9.50;18.30;99.90;;;;;;4944883;28;11051;-58
2022/06/20 08:44:02;;;;;;;;;8.75;7.50;18.20;99.90;;;;;;4954907;28;11005;-59
2022/06/20 08:46:44;;;;;;;;;7.00;5.50;18.20;99.90;;;;;;4953802;28;11700;-59
2022/06/20 08:49:34;;;;;;;;;7.50;5.75;18.30;99.90;;;;;;4949007;28;10942;-59
2022/06/20 08:52:34;;;;;;;;;4.75;4.75;18.20;99.90;;;;;;4953328;28;10914;-59
2022/06/20 08:55:34;;;;;;;;;5.25;4.00;18.20;99.90;;;;;;4956593;28;10831;-59
2022/06/20 08:58:17;;;;;;;;;5.00;4.25;18.20;99.90;;;;;;4961856;28;10791;-58
2022/06/20 09:01:07;;;;;;;;;3.25;3.25;18.10;99.90;;;;;;4956408;28;10344;-57
2022/06/20 09:04:02;;;;;;;;;2.50;2.50;18.10;99.90;;;;;;4953482;28;10174;-59
2022/06/20 09:07:04;;;;;;;;;3.00;3.00;18.10;99.90;;;;;;4956153;28;10326;-59
2022/06/20 09:10:11;;;;;;;;;3.75;3.75;18.00;99.90;;;;;;4884703;28;10529;-58
2022/06/20 09:13:00;;;;;;;;;5.00;5.00;18.00;99.90;;;;;;4957327;28;10495;-58
2022/06/20 09:15:33;;;;;;;;;4.25;4.25;18.00;99.90;;;;;;4952732;28;10774;-60
2022/06/20 09:18:10;;;;;;;;;7.00;7.00;18.00;99.90;;;;;;4955412;28;10621;-58
2022/06/20 09:21:08;;;;;;;;;6.25;4.50;18.00;99.90;;;;;;4934510;28;10779;-57
2022/06/20 09:23:47;;;;;;;;;6.00;6.00;18.00;99.90;;;;;;4932155;28;12362;-58
2022/06/20 09:26:38;;;;;;;;;8.75;7.00;17.90;99.90;;;;;;4924240;28;10691;-57
2022/06/20 09:29:24;;;;;;;;;4.50;4.50;17.90;99.90;;;;;;4938611;28;10703;-58
2022/06/20 09:32:14;;;;;;;;;7.00;7.00;17.90;99.90;;;;;;4930959;28;10841;-58
2022/06/20 09:34:50;;;;;;;;;9.75;8.00;17.80;99.90;;;;;;4930158;28;10648;-59
2022/06/20 09:37:51;;;;;;;;;9.50;8.00;17.80;99.90;;;;;;4932647;28;10717;-58
2022/06/20 09:40:42;;;;;;;;;8.50;7.25;17.80;99.90;;;;;;4931641;28;10897;-59
2022/06/20 09:43:40;;;;;;;;;6.50;6.50;17.80;99.90;;;;;;4925975;28;10742;-59
2022/06/20 09:46:28;;;;;;;;;7.00;5.25;17.80;99.90;;;;;;4936604;28;10925;-58
2022/06/20 09:49:37;;;;;;;;;8.50;8.50;17.70;99.90;;;;;;4928200;28;10627;-59
2022/06/20 09:52:29;;;;;;;;;12.25;10.75;17.60;99.90;;;;;;4916572;28;10852;-59
2022/06/20 09:55:06;;;;;;;;;9.75;9.75;17.60;99.90;;;;;;4933105;28;11181;-57
2022/06/20 09:57:55;;;;;;;;;11.00;10.50;17.60;99.90;;;;;;4930723;28;10810;-58
2022/06/20 10:00:40;;;;;;;;;10.25;9.00;17.60;99.90;;;;;;4933249;28;10921;-59
2022/06/20 10:03:39;;;;;;;;;17.75;16.00;17.50;99.90;;;;;;4942121;28;10858;-58
2022/06/20 10:06:37;;;;;;;;;18.25;16.75;17.60;99.90;;;;;;4934032;28;11262;-58
2022/06/20 10:09:15;;;;;;;;;14.25;13.50;17.60;99.90;;;;;;4932414;28;11118;-58
2022/06/20 10:12:16;;;;;;;;;12.50;12.25;17.60;99.90;;;;;;4937550;28;12036;-58
2022/06/20 10:15:13;;;;;;;;;19.00;18.25;17.50;99.90;;;;;;4934040;28;11531;-58
2022/06/20 10:17:49;;;;;;;;;17.75;16.75;17.50;99.90;;;;;;4913413;28;11342;-59
2022/06/20 10:20:21;;;;;;;;;17.25;15.75;17.40;99.90;;;;;;4950956;28;11206;-58
2022/06/20 10:23:16;;;;;;;;;13.75;13.75;17.40;99.90;;;;;;4954534;28;11300;-59
2022/06/20 10:25:48;;;;;;;;;15.75;15.75;17.40;99.90;;;;;;4953917;28;11221;-58
2022/06/20 10:28:43;;;;;;;;;17.75;17.75;17.40;99.90;;;;;;4955922;28;11267;-58
2022/06/20 10:31:43;;;;;;;;;17.75;17.75;17.30;99.90;;;;;;4933317;28;11152;-59
2022/06/20 10:34:39;;;;;;;;;22.00;22.00;17.30;99.90;;;;;;4928945;28;11551;-59
2022/06/20 10:37:26;;;;;;;;;24.25;22.50;17.30;99.90;;;;;;4954991;28;11648;-58
2022/06/20 10:40:19;;;;;;;;;21.25;20.00;17.20;99.90;;;;;;4949589;28;11512;-58
2022/06/20 10:43:09;;;;;;;;;21.50;21.50;17.20;99.90;;;;;;4955185;28;11545;-59
2022/06/20 10:45:57;;;;;;;;;24.00;22.50;17.20;99.90;;;;;;4954071;28;11341;-58
2022/06/20 10:48:43;;;;;;;;;22.25;20.25;17.20;99.90;;;;;;4947484;28;11500;-58
2022/06/20 10:51:49;;;;;;;;;21.00;18.50;17.20;99.90;;;;;;4954735;28;11256;-58
2022/06/20 10:54:37;;;;;;;;;16.00;16.00;17.10;99.90;;;;;;4950830;28;12037;-59
2022/06/20 10:57:40;;;;;;;;;12.00;12.00;17.10;99.90;;;;;;4953649;28;12174;-58
2022/06/20 11:00:15;;;;;;;;;4.50;4.50;17.10;99.90;;;;;;4955269;28;11482;-59
2022/06/20 11:03:33;;;;;;;;;9.00;8.75;17.10;99.90;;;;;;4955276;28;11206;-59
2022/06/20 11:06:16;;;;;;;;;5.50;3.50;17.10;99.90;;;;;;4938665;28;11123;-59
2022/06/20 11:09:18;;;;;;;;;4.00;4.00;17.10;99.90;;;;;;4952657;28;10860;-58
2022/06/20 11:12:08;;;;;;;;;7.00;6.00;17.00;99.90;;;;;;4952679;28;11018;-59
2022/06/20 11:15:08;;;;;;;;;6.00;6.00;17.00;99.90;;;;;;4905619;28;10611;-59
2022/06/20 11:17:55;;;;;;;;;5.50;5.50;17.00;99.90;;;;;;4951550;28;10701;-58
2022/06/20 11:20:47;;;;;;;;;7.75;7.50;17.00;99.90;;;;;;4933649;28;10776;-58
2022/06/20 11:23:31;;;;;;;;;6.50;5.25;17.00;99.90;;;;;;4913333;28;10813;-59
2022/06/20 11:26:07;;;;;;;;;4.00;4.00;17.00;99.90;;;;;;4936098;28;10883;-58
2022/06/20 11:29:05;;;;;;;;;3.50;3.50;16.90;99.90;;;;;;4931433;28;10700;-59
2022/06/20 11:32:04;;;;;;;;;2.75;2.75;16.90;99.90;;;;;;4915283;28;10592;-60
2022/06/20 11:34:35;;;;;;;;;3.25;3.25;16.90;99.90;;;;;;4849635;28;10640;-59
2022/06/20 11:37:48;;;;;;;;;5.75;5.75;16.90;99.90;;;;;;4932376;28;10562;-59
2022/06/20 11:40:54;;;;;;;;;3.00;3.00;16.90;99.90;;;;;;4934486;28;10562;-58
2022/06/20 11:43:40;;;;;;;;;4.50;4.50;16.90;99.90;;;;;;4908271;28;10741;-58
2022/06/20 11:46:15;;;;;;;;;5.00;5.00;16.80;99.90;;;;;;4930401;28;10663;-58
2022/06/20 11:49:00;;;;;;;;;5.00;5.00;16.80;99.90;;;;;;4932021;28;10633;-59
2022/06/20 11:52:00;;;;;;;;;4.50;4.50;16.80;99.90;;;;;;4933847;28;10788;-59
2022/06/20 11:55:09;;;;;;;;;6.50;6.50;16.80;99.90;;;;;;4919023;28;10825;-59
2022/06/20 11:57:50;;;;;;;;;5.50;5.50;16.80;99.90;;;;;;4918750;28;11386;-59
2022/06/20 12:00:53;;;;;;;;;4.75;4.00;16.70;99.90;;;;;;4927976;28;10714;-60
2022/06/20 12:03:49;;;;;;;;;5.00;5.00;16.70;99.90;;;;;;4932333;28;11515;-58
2022/06/20 12:06:33;;;;;;;;;7.50;7.50;16.70;99.90;;;;;;4937015;28;11050;-58
2022/06/20 12:09:24;;;;;;;;;5.00;5.00;16.60;99.90;;;;;;4934720;28;11000;-59
2022/06/20 12:12:06;;;;;;;;;6.50;6.50;16.50;99.90;;;;;;4916618;28;10818;-57
2022/06/20 12:14:42;;;;;;;;;4.50;4.50;16.50;99.90;;;;;;4936580;28;10912;-59
2022/06/20 12:17:39;;;;;;;;;6.25;6.25;16.50;99.90;;;;;;4929204;28;12156;-59
2022/06/20 12:23:48;;;;;;;;;12.75;6.00;16.50;99.90;;;;;;4956275;28;11315;-59
2022/06/20 12:26:31;;;;;;;;;6.00;6.00;16.50;99.90;;;;;;4950894;28;10733;-59
2022/06/20 12:29:06;;;;;;;;;4.00;4.00;16.40;99.90;;;;;;4950206;28;10726;-57
2022/06/20 12:31:41;;;;;;;;;4.25;4.25;16.40;99.90;;;;;;4950912;28;10784;-59
2022/06/20 12:34:39;;;;;;;;;1.50;0.50;16.30;99.90;;;;;;4929738;28;10604;-59
2022/06/20 12:37:40;;;;;;;;;6.00;4.00;16.30;99.90;;;;;;4952987;28;10843;-59
2022/06/20 12:40:11;;;;;;;;;6.75;5.25;16.40;99.90;;;;;;4954078;28;10716;-59
2022/06/20 12:42:52;;;;;;;;;4.50;3.00;16.30;99.90;;;;;;4960443;28;10973;-59
2022/06/20 12:45:42;;;;;;;;;5.00;5.00;16.30;99.90;;;;;;4952254;28;10621;-59
2022/06/20 12:48:47;;;;;;;;;7.25;5.75;16.30;99.90;;;;;;4936656;28;11191;-58
2022/06/20 12:51:45;;;;;;;;;4.00;4.00;16.30;99.90;;;;;;4952980;28;10800;-60
2022/06/20 12:54:36;;;;;;;;;5.00;5.00;16.20;99.90;;;;;;4953985;28;11432;-59
2022/06/20 12:57:28;;;;;;;;;5.25;5.25;16.20;99.90;;;;;;4953887;28;10807;-57
2022/06/20 13:00:21;;;;;;;;;6.00;6.00;16.10;99.90;;;;;;4954750;28;10719;-59
2022/06/20 13:03:00;;;;;;;;;6.00;6.00;16.20;99.90;;;;;;4956281;28;10553;-59
2022/06/20 13:05:50;;;;;;;;;5.00;5.00;16.10;99.90;;;;;;4955545;28;10802;-58
2022/06/20 13:08:54;;;;;;;;;6.50;6.25;16.10;99.90;;;;;;4957397;28;10574;-59
2022/06/20 13:11:58;;;;;;;;;6.00;6.00;16.10;99.90;;;;;;4959395;28;10847;-58
2022/06/20 13:14:44;;;;;;;;;7.75;6.00;16.10;99.90;;;;;;4958540;28;10835;-59
2022/06/20 13:17:40;;;;;;;;;7.00;6.50;16.10;99.90;;;;;;4951269;28;11432;-58
2022/06/20 13:20:55;;;;;;;;;6.50;6.25;16.20;99.90;;;;;;4950778;28;10828;-57
2022/06/20 13:24:07;;;;;;;;;6.00;4.50;16.20;99.90;;;;;;4938327;28;11294;-59
2022/06/20 13:26:52;;;;;;;;;6.00;6.00;16.10;99.90;;;;;;4931933;28;12058;-58
2022/06/20 13:29:42;;;;;;;;;5.25;5.25;16.10;99.90;;;;;;4935875;28;10930;-61
2022/06/20 13:32:34;;;;;;;;;6.75;5.00;16.10;99.90;;;;;;4934183;28;10859;-59
2022/06/20 13:35:26;;;;;;;;;6.75;5.25;16.10;99.90;;;;;;4932864;28;10866;-59
2022/06/20 13:37:59;;;;;;;;;7.50;6.25;16.20;99.90;;;;;;4936177;28;10827;-58
2022/06/20 13:41:00;;;;;;;;;7.50;5.75;16.10;99.90;;;;;;4938971;28;10766;-58
2022/06/20 13:43:45;;;;;;;;;6.25;6.25;16.10;99.90;;;;;;4933856;28;10983;-58
2022/06/20 13:46:35;;;;;;;;;8.00;7.00;16.10;99.90;;;;;;4939462;28;11546;-58
2022/06/20 13:49:17;;;;;;;;;6.00;6.00;16.10;99.90;;;;;;4932249;28;10663;-59
2022/06/20 13:51:53;;;;;;;;;7.00;6.00;16.10;99.90;;;;;;4936856;28;11006;-61
2022/06/20 13:54:39;;;;;;;;;6.75;6.00;16.10;99.90;;;;;;4936324;28;10949;-59
2022/06/20 13:57:29;;;;;;;;;9.75;8.25;16.10;99.90;;;;;;4917758;28;11153;-58
2022/06/20 14:00:07;;;;;;;;;7.25;7.25;16.10;99.90;;;;;;4937311;28;10893;-60
2022/06/20 14:02:42;;;;;;;;;7.50;7.25;16.10;99.90;;;;;;4940449;28;10934;-58
2022/06/20 14:05:18;;;;;;;;;7.25;6.50;16.10;99.90;;;;;;4909922;28;11043;-60
2022/06/20 14:07:53;;;;;;;;;7.75;7.75;16.10;99.90;;;;;;4919596;28;11173;-59
2022/06/20 14:10:31;;;;;;;;;7.25;7.25;16.10;99.90;;;;;;4917591;28;10643;-57
2022/06/20 14:13:16;;;;;;;;;9.25;8.00;16.10;99.90;;;;;;4935413;28;11863;-58
2022/06/20 14:15:46;;;;;;;;;6.75;6.75;16.20;99.90;;;;;;4932125;28;10811;-60
2022/06/20 14:18:23;;;;;;;;;8.00;7.50;16.20;99.90;;;;;;4916807;28;10853;-56
2022/06/20 14:21:05;;;;;;;;;7.00;6.50;16.20;99.90;;;;;;4934458;28;11034;-59
2022/06/20 14:23:37;;;;;;;;;5.75;5.75;16.20;99.90;;;;;;4941167;28;10884;-59
2022/06/20 14:26:26;;;;;;;;;7.25;6.75;16.30;99.90;;;;;;4916540;28;10971;-59